createdAt,value
2019-02-25T00:01:35.217Z,37.77
2019-02-25T00:04:04.624Z,36.10
2019-02-25T00:06:32.714Z,33.20
2019-02-25T00:09:00.916Z,33.53
2019-02-25T00:11:29.308Z,35.37
2019-02-25T00:13:57.359Z,32.00
2019-02-25T00:16:25.925Z,33.00
2019-02-25T00:18:54.016Z,36.03
2019-02-25T00:21:22.418Z,35.37
2019-02-25T00:23:50.546Z,32.43
2019-02-25T00:26:18.771Z,36.00
2019-02-25T00:28:46.897Z,37.17
2019-02-25T00:31:14.976Z,36.73
2019-02-25T00:33:43.074Z,35.80
2019-02-25T00:36:11.176Z,34.97
2019-02-25T00:38:39.245Z,35.13
2019-02-25T00:41:07.543Z,35.60
2019-02-25T00:43:36.019Z,33.23
2019-02-25T00:46:04.998Z,31.07
2019-02-25T00:48:33.487Z,36.80
2019-02-25T00:51:01.720Z,35.10
2019-02-25T00:53:29.848Z,31.67
2019-02-25T00:55:58.110Z,32.13
2019-02-25T00:58:26.208Z,32.27
2019-02-25T01:00:54.249Z,32.27
2019-02-25T01:03:22.401Z,27.40
2019-02-25T01:05:50.747Z,32.50
2019-02-25T01:08:18.876Z,26.63
2019-02-25T01:10:47.263Z,29.20
2019-02-25T01:13:15.381Z,28.30
2019-02-25T01:15:43.448Z,30.90
2019-02-25T01:18:11.642Z,29.77
2019-02-25T01:20:42.035Z,34.13
2019-02-25T01:23:10.212Z,28.90
2019-02-25T01:25:38.348Z,28.60
2019-02-25T01:28:06.972Z,27.60
2019-02-25T01:30:36.426Z,26.90
2019-02-25T01:33:05.044Z,26.43
2019-02-25T01:35:34.200Z,24.47
2019-02-25T01:38:04.195Z,27.40
2019-02-25T01:40:33.594Z,24.23
2019-02-25T01:43:01.833Z,24.80
2019-02-25T01:45:30.294Z,26.73
2019-02-25T01:47:58.659Z,22.90
2019-02-25T01:50:26.763Z,25.63
2019-02-25T01:52:54.890Z,25.93
2019-02-25T01:55:23.007Z,24.43
2019-02-25T01:57:51.321Z,27.23
2019-02-25T02:00:19.443Z,29.90
2019-02-25T02:02:48.005Z,30.17
2019-02-25T02:05:17.121Z,25.30
2019-02-25T02:07:45.575Z,24.57
2019-02-25T02:10:14.308Z,27.53
2019-02-25T02:12:43.205Z,27.00
2019-02-25T02:15:13.537Z,27.77
2019-02-25T02:17:42.107Z,27.53
2019-02-25T02:20:13.469Z,27.33
2019-02-25T02:22:41.508Z,29.10
2019-02-25T02:25:10.109Z,23.63
2019-02-25T02:27:38.191Z,27.63
2019-02-25T02:30:10.515Z,24.77
2019-02-25T02:32:38.958Z,23.97
2019-02-25T02:35:07.765Z,24.10
2019-02-25T02:37:37.151Z,22.67
2019-02-25T02:40:06.824Z,28.07
2019-02-25T02:42:34.929Z,24.17
2019-02-25T02:45:33.461Z,23.97
2019-02-25T02:48:33.119Z,25.63
2019-02-25T02:51:01.646Z,23.93
2019-02-25T02:53:30.174Z,30.07
2019-02-25T02:55:58.529Z,23.70
2019-02-25T02:58:27.275Z,27.37
2019-02-25T03:00:56.005Z,23.93
2019-02-25T03:03:25.190Z,23.97
2019-02-25T03:05:53.703Z,29.00
2019-02-25T03:08:21.820Z,29.63
2019-02-25T03:10:49.914Z,26.17
2019-02-25T03:13:18.259Z,24.80
2019-02-25T03:15:46.487Z,26.03
2019-02-25T03:18:14.566Z,28.23
2019-02-25T03:20:42.819Z,28.43
2019-02-25T03:23:10.994Z,27.33
2019-02-25T03:25:39.700Z,31.73
2019-02-25T03:28:08.424Z,25.47
2019-02-25T03:30:36.613Z,25.97
2019-02-25T03:33:05.538Z,22.97
2019-02-25T03:35:33.919Z,22.03
2019-02-25T03:38:02.136Z,23.27
2019-02-25T03:40:30.202Z,27.30
2019-02-25T03:42:59.247Z,27.67
2019-02-25T03:45:27.360Z,27.37
2019-02-25T03:47:55.504Z,23.23
2019-02-25T03:50:23.880Z,29.60
2019-02-25T03:52:52.000Z,25.97
2019-02-25T03:55:20.881Z,26.70
2019-02-25T03:57:49.614Z,27.37
2019-02-25T04:00:20.699Z,24.53
2019-02-25T04:02:49.165Z,25.70
2019-02-25T04:05:17.385Z,25.33
2019-02-25T04:07:45.554Z,26.63
2019-02-25T04:10:15.179Z,28.30
2019-02-25T04:12:43.689Z,25.90
2019-02-25T04:15:16.563Z,25.07
2019-02-25T04:17:46.451Z,26.93
2019-02-25T04:20:15.031Z,27.80
2019-02-25T04:22:43.096Z,26.40
2019-02-25T04:25:11.375Z,28.73
2019-02-25T04:27:39.636Z,25.30
2019-02-25T04:30:11.651Z,27.47
2019-02-25T04:32:40.692Z,22.63
2019-02-25T04:35:11.540Z,26.10
2019-02-25T04:37:40.436Z,25.27
2019-02-25T04:40:10.606Z,27.90
2019-02-25T04:42:40.531Z,24.97
2019-02-25T04:45:13.325Z,26.27
2019-02-25T04:47:41.511Z,25.67
2019-02-25T04:50:10.682Z,29.97
2019-02-25T04:52:38.871Z,29.67
2019-02-25T04:55:08.240Z,27.13
2019-02-25T04:57:36.385Z,26.00
2019-02-25T05:00:09.245Z,32.17
2019-02-25T05:02:37.379Z,33.63
2019-02-25T05:05:05.596Z,25.20
2019-02-25T05:07:33.836Z,30.00
2019-02-25T05:10:02.234Z,23.00
2019-02-25T05:12:30.383Z,28.03
2019-02-25T05:14:58.592Z,24.23
2019-02-25T05:17:26.700Z,27.73
2019-02-25T05:19:54.785Z,25.60
2019-02-25T05:22:23.666Z,28.93
2019-02-25T05:24:52.761Z,29.47
2019-02-25T05:27:21.342Z,25.00
2019-02-25T05:29:49.454Z,25.00
2019-02-25T05:32:17.871Z,27.83
2019-02-25T05:34:46.922Z,24.23
2019-02-25T05:37:15.282Z,25.20
2019-02-25T05:39:43.559Z,26.57
2019-02-25T05:42:12.082Z,25.33
2019-02-25T05:44:40.218Z,26.50
2019-02-25T05:47:08.553Z,27.00
2019-02-25T05:49:36.680Z,24.97
2019-02-25T05:52:04.875Z,28.80
2019-02-25T05:54:32.967Z,28.80
2019-02-25T05:57:01.131Z,27.60
2019-02-25T05:59:30.199Z,26.93
2019-02-25T06:01:58.607Z,25.07
2019-02-25T06:04:27.685Z,29.30
2019-02-25T06:06:57.582Z,27.13
2019-02-25T06:09:25.642Z,27.43
2019-02-25T06:11:53.876Z,25.87
2019-02-25T06:14:21.953Z,26.87
2019-02-25T06:16:50.385Z,26.87
2019-02-25T06:19:18.988Z,30.20
2019-02-25T06:21:47.823Z,28.83
2019-02-25T06:24:16.887Z,28.47
2019-02-25T06:26:46.631Z,30.67
2019-02-25T06:29:15.135Z,30.27
2019-02-25T06:31:43.239Z,30.40
2019-02-25T06:34:11.924Z,27.80
2019-02-25T06:36:40.051Z,30.13
2019-02-25T06:39:08.753Z,26.67
2019-02-25T06:41:37.127Z,25.63
2019-02-25T06:44:05.338Z,29.23
2019-02-25T06:46:33.665Z,30.83
2019-02-25T06:49:02.291Z,28.80
2019-02-25T06:51:30.510Z,26.80
2019-02-25T06:53:59.224Z,29.57
2019-02-25T06:56:27.640Z,29.03
2019-02-25T06:58:56.481Z,28.10
2019-02-25T07:01:24.662Z,27.43
2019-02-25T07:04:20.542Z,25.70
2019-02-25T07:07:02.257Z,32.70
2019-02-25T07:09:55.711Z,29.23
2019-02-25T07:12:29.478Z,28.97
2019-02-25T07:15:09.183Z,26.20
2019-02-25T07:17:55.990Z,30.20
2019-02-25T07:20:36.051Z,30.30
2019-02-25T07:23:33.774Z,29.77
2019-02-25T07:26:24.827Z,27.73
2019-02-25T07:29:12.974Z,34.10
2019-02-25T07:32:09.858Z,29.90
2019-02-25T07:35:00.710Z,37.17
2019-02-25T07:37:47.128Z,31.27
2019-02-25T07:40:37.673Z,31.73
2019-02-25T07:43:28.140Z,30.10
2019-02-25T07:46:14.799Z,32.27
2019-02-25T07:49:02.420Z,35.17
2019-02-25T07:51:36.250Z,34.50
2019-02-25T07:54:30.070Z,30.07
2019-02-25T07:57:13.650Z,38.60
2019-02-25T08:00:07.370Z,36.57
2019-02-25T08:02:44.771Z,35.57
2019-02-25T08:05:42.385Z,34.93
2019-02-25T08:08:39.882Z,37.03
2019-02-25T08:11:24.125Z,33.47
2019-02-25T08:14:18.634Z,35.90
2019-02-25T08:17:01.195Z,34.47
2019-02-25T08:19:47.647Z,44.97
2019-02-25T08:22:28.371Z,34.00
2019-02-25T08:25:19.286Z,33.07
2019-02-25T08:28:07.117Z,34.80
2019-02-25T08:31:01.073Z,32.43
2019-02-25T08:33:58.459Z,32.30
2019-02-25T08:37:38.138Z,33.10
2019-02-25T08:40:44.975Z,33.17
2019-02-25T08:43:24.176Z,30.23
2019-02-25T08:46:21.304Z,30.67
2019-02-25T08:49:17.988Z,31.87
2019-02-25T08:51:46.163Z,34.40
2019-02-25T08:54:14.421Z,34.00
2019-02-25T08:56:42.494Z,28.83
2019-02-25T08:59:11.245Z,27.40
2019-02-25T09:01:39.763Z,31.80
2019-02-25T09:04:07.883Z,32.53
2019-02-25T09:06:36.471Z,28.67
2019-02-25T09:09:05.825Z,33.87
2019-02-25T09:11:34.206Z,31.00
2019-02-25T09:14:02.295Z,32.60
2019-02-25T09:16:30.417Z,30.77
2019-02-25T09:18:58.600Z,35.77
2019-02-25T09:21:31.772Z,29.80
2019-02-25T09:23:57.039Z,28.83
2019-02-25T09:26:25.204Z,28.30
2019-02-25T09:28:53.425Z,30.43
2019-02-25T09:31:21.607Z,27.80
2019-02-25T09:33:49.640Z,27.17
2019-02-25T09:36:17.885Z,30.80
2019-02-25T09:38:45.941Z,25.07
2019-02-25T09:41:14.987Z,29.27
2019-02-25T09:43:43.130Z,31.97
2019-02-25T09:46:11.401Z,34.13
2019-02-25T09:48:39.860Z,32.80
2019-02-25T09:51:07.957Z,30.53
2019-02-25T09:53:36.077Z,29.43
2019-02-25T09:56:05.131Z,27.00
2019-02-25T09:58:33.233Z,35.00
2019-02-25T10:01:01.353Z,29.33
2019-02-25T10:03:29.550Z,28.10
2019-02-25T10:05:57.708Z,23.90
2019-02-25T10:08:25.995Z,24.30
2019-02-25T10:10:54.390Z,23.17
2019-02-25T10:13:22.836Z,23.43
2019-02-25T10:15:51.152Z,20.10
2019-02-25T10:18:19.308Z,23.87
2019-02-25T10:20:47.403Z,24.57
2019-02-25T10:23:15.552Z,25.13
2019-02-25T10:25:44.295Z,20.77
2019-02-25T10:28:12.428Z,20.23
2019-02-25T10:30:40.504Z,20.00
2019-02-25T10:33:08.668Z,20.23
2019-02-25T10:35:36.785Z,20.37
2019-02-25T10:38:05.119Z,20.97
2019-02-25T10:40:33.640Z,18.80
2019-02-25T10:43:01.838Z,20.53
2019-02-25T10:45:30.783Z,18.47
2019-02-25T10:47:58.995Z,19.67
2019-02-25T10:50:28.830Z,19.23
2019-02-25T10:53:03.433Z,20.17
2019-02-25T10:55:32.911Z,18.60
2019-02-25T10:58:02.097Z,19.53
2019-02-25T11:00:31.349Z,19.20
2019-02-25T11:02:59.446Z,20.17
2019-02-25T11:05:30.333Z,19.90
2019-02-25T11:07:58.543Z,18.80
2019-02-25T11:10:31.248Z,16.13
2019-02-25T11:13:01.994Z,16.83
2019-02-25T11:15:32.091Z,19.27
2019-02-25T11:18:00.195Z,20.33
2019-02-25T11:20:29.333Z,17.40
2019-02-25T11:22:58.457Z,16.10
2019-02-25T11:25:28.454Z,20.87
2019-02-25T11:27:56.597Z,19.40
2019-02-25T11:30:24.782Z,22.77
2019-02-25T11:32:55.427Z,21.87
2019-02-25T11:35:23.167Z,25.10
2019-02-25T11:37:51.940Z,23.90
2019-02-25T11:40:21.396Z,25.70
2019-02-25T11:42:50.532Z,26.77
2019-02-25T11:45:19.249Z,21.73
2019-02-25T11:47:47.369Z,21.80
2019-02-25T11:50:15.587Z,21.73
2019-02-25T11:52:43.700Z,19.87
2019-02-25T11:55:12.351Z,22.67
2019-02-25T11:57:40.613Z,18.33
2019-02-25T12:00:16.089Z,19.30
2019-02-25T12:02:44.358Z,23.93
2019-02-25T12:05:14.336Z,15.33
2019-02-25T12:07:49.519Z,16.53
2019-02-25T12:10:17.720Z,18.70
2019-02-25T12:12:46.065Z,17.03
2019-02-25T12:15:14.764Z,18.80
2019-02-25T12:17:43.005Z,16.50
2019-02-25T12:20:11.910Z,17.67
2019-02-25T12:22:39.999Z,19.80
2019-02-25T12:25:09.659Z,20.37
2019-02-25T12:27:37.727Z,17.00
2019-02-25T12:30:11.170Z,18.93
2019-02-25T12:32:39.284Z,16.30
2019-02-25T12:35:08.057Z,22.13
2019-02-25T12:37:36.155Z,19.23
2019-02-25T12:40:04.982Z,28.23
2019-02-25T12:42:33.108Z,20.93
2019-02-25T12:45:01.242Z,18.53
2019-02-25T12:47:29.316Z,16.87
2019-02-25T12:49:58.239Z,17.73
2019-02-25T12:52:26.341Z,19.67
2019-02-25T12:54:54.473Z,18.67
2019-02-25T12:57:22.532Z,19.47
2019-02-25T12:59:50.626Z,22.10
2019-02-25T13:02:18.997Z,21.60
2019-02-25T13:04:47.133Z,23.17
2019-02-25T13:07:15.361Z,21.73
2019-02-25T13:09:43.451Z,18.93
2019-02-25T13:12:11.554Z,21.23
2019-02-25T13:14:39.651Z,19.47
2019-02-25T13:17:07.783Z,25.90
2019-02-25T13:19:35.908Z,21.70
2019-02-25T13:22:04.206Z,17.27
2019-02-25T13:24:32.748Z,19.77
2019-02-25T13:27:03.170Z,18.27
2019-02-25T13:29:31.995Z,19.57
2019-02-25T13:32:00.196Z,18.53
2019-02-25T13:34:28.270Z,13.57
2019-02-25T13:36:57.099Z,16.50
2019-02-25T13:39:25.479Z,17.60
2019-02-25T13:41:53.729Z,17.50
2019-02-25T13:44:21.974Z,16.90
2019-02-25T13:46:50.170Z,15.63
2019-02-25T13:49:18.951Z,16.40
2019-02-25T13:51:47.057Z,19.33
2019-02-25T13:54:15.283Z,15.70
2019-02-25T13:56:43.564Z,15.70
2019-02-25T13:59:12.194Z,18.17
2019-02-25T14:01:40.378Z,17.03
2019-02-25T14:04:08.632Z,19.20
2019-02-25T14:06:36.804Z,17.00
2019-02-25T14:09:08.056Z,18.10
2019-02-25T14:11:36.419Z,18.60
2019-02-25T14:14:04.619Z,17.60
2019-02-25T14:16:32.807Z,19.13
2019-02-25T14:19:01.027Z,18.53
2019-02-25T14:21:29.180Z,17.83
2019-02-25T14:23:57.659Z,19.40
2019-02-25T14:26:27.657Z,20.20
2019-02-25T14:28:55.753Z,16.30
2019-02-25T14:31:24.082Z,16.83
2019-02-25T14:33:52.479Z,16.23
2019-02-25T14:36:20.955Z,11.17
2019-02-25T14:38:49.451Z,12.17
2019-02-25T14:41:18.531Z,13.40
2019-02-25T14:43:49.613Z,12.10
2019-02-25T14:46:21.834Z,10.60
2019-02-25T14:48:47.763Z,13.13
2019-02-25T14:51:16.084Z,9.97
2019-02-25T14:53:45.190Z,15.00
2019-02-25T14:56:14.359Z,10.90
2019-02-25T14:58:43.137Z,8.77
2019-02-25T15:01:12.789Z,10.70
2019-02-25T15:03:40.865Z,12.93
2019-02-25T15:06:10.163Z,11.03
2019-02-25T15:08:38.264Z,9.57
2019-02-25T15:11:08.682Z,10.20
2019-02-25T15:13:37.600Z,10.73
2019-02-25T15:16:06.786Z,10.63
2019-02-25T15:18:35.170Z,11.93
2019-02-25T15:21:06.878Z,9.53
2019-02-25T15:23:36.371Z,9.43
2019-02-25T15:26:05.549Z,8.33
2019-02-25T15:28:34.711Z,13.33
2019-02-25T15:31:04.419Z,8.30
2019-02-25T15:33:33.626Z,10.17
2019-02-25T15:36:03.335Z,8.47
2019-02-25T15:38:33.146Z,10.47
2019-02-25T15:41:02.152Z,8.90
2019-02-25T15:43:31.862Z,9.03
2019-02-25T15:46:00.345Z,8.83
2019-02-25T15:48:29.031Z,11.03
2019-02-25T15:51:00.636Z,10.80
2019-02-25T15:53:28.724Z,9.13
2019-02-25T15:55:59.308Z,9.60
2019-02-25T15:58:27.204Z,10.77
2019-02-25T16:00:55.655Z,14.87
2019-02-25T16:03:24.484Z,11.47
2019-02-25T16:05:57.203Z,14.87
2019-02-25T16:08:23.837Z,12.93
2019-02-25T16:10:55.598Z,12.03
2019-02-25T16:13:24.050Z,13.40
2019-02-25T16:15:52.166Z,12.03
2019-02-25T16:18:20.463Z,10.83
2019-02-25T16:20:48.662Z,17.03
2019-02-25T16:23:16.773Z,12.27
2019-02-25T16:25:46.165Z,11.80
2019-02-25T16:28:17.318Z,10.67
2019-02-25T16:30:46.839Z,15.43
2019-02-25T16:33:15.785Z,12.57
2019-02-25T16:35:45.641Z,12.90
2019-02-25T16:38:14.307Z,12.50
2019-02-25T16:40:42.484Z,13.60
2019-02-25T16:43:12.700Z,13.77
2019-02-25T16:45:42.565Z,14.17
2019-02-25T16:48:10.966Z,15.20
2019-02-25T16:50:41.608Z,12.27
2019-02-25T16:53:12.726Z,14.77
2019-02-25T16:55:42.163Z,15.03
2019-02-25T16:58:13.060Z,14.23
2019-02-25T17:00:41.896Z,13.47
2019-02-25T17:03:11.145Z,14.50
2019-02-25T17:05:42.104Z,15.00
2019-02-25T17:08:14.323Z,13.43
2019-02-25T17:10:42.695Z,13.17
2019-02-25T17:13:14.315Z,12.67
2019-02-25T17:15:41.649Z,12.47
2019-02-25T17:18:15.131Z,16.53
2019-02-25T17:20:42.190Z,13.90
2019-02-25T17:23:10.306Z,14.97
2019-02-25T17:25:40.784Z,14.10
2019-02-25T17:28:14.371Z,15.13
2019-02-25T17:30:40.686Z,15.63
2019-02-25T17:33:10.532Z,15.97
2019-02-25T17:35:39.654Z,19.83
2019-02-25T17:38:08.067Z,17.77
2019-02-25T17:40:36.214Z,18.40
2019-02-25T17:43:04.815Z,15.73
2019-02-25T17:45:34.435Z,16.87
2019-02-25T17:48:08.057Z,14.70
2019-02-25T17:50:35.329Z,17.70
2019-02-25T17:53:05.119Z,13.53
2019-02-25T17:55:36.279Z,18.07
2019-02-25T17:58:05.708Z,14.97
2019-02-25T18:00:39.588Z,19.80
2019-02-25T18:03:10.933Z,17.57
2019-02-25T18:05:40.760Z,20.90
2019-02-25T18:08:14.542Z,18.03
2019-02-25T18:10:40.732Z,20.17
2019-02-25T18:13:10.935Z,17.33
2019-02-25T18:15:39.200Z,16.00
2019-02-25T18:18:09.271Z,16.27
2019-02-25T18:20:38.973Z,17.33
2019-02-25T18:23:07.288Z,21.53
2019-02-25T18:25:37.689Z,16.17
2019-02-25T18:28:06.309Z,18.67
2019-02-25T18:30:36.523Z,18.80
2019-02-25T18:33:05.447Z,18.43
2019-02-25T18:35:36.356Z,26.63
2019-02-25T18:38:05.364Z,21.93
2019-02-25T18:40:35.891Z,23.87
2019-02-25T18:43:06.550Z,28.17
2019-02-25T18:45:36.150Z,28.40
2019-02-25T18:48:06.751Z,38.03
2019-02-25T18:50:35.432Z,38.23
2019-02-25T18:53:04.063Z,29.73
2019-02-25T18:55:34.221Z,27.13
2019-02-25T18:58:05.107Z,24.13
2019-02-25T19:00:36.353Z,27.93
2019-02-25T19:03:05.641Z,21.37
2019-02-25T19:05:34.239Z,24.10
2019-02-25T19:08:14.436Z,23.00
2019-02-25T19:10:43.419Z,26.53
2019-02-25T19:13:10.964Z,22.70
2019-02-25T19:15:39.482Z,22.90
2019-02-25T19:18:09.435Z,24.33
2019-02-25T19:20:38.871Z,20.57
2019-02-25T19:23:10.190Z,21.10
2019-02-25T19:25:38.248Z,26.00
2019-02-25T19:28:07.167Z,23.53
2019-02-25T19:30:35.488Z,25.43
2019-02-25T19:33:10.994Z,21.10
2019-02-25T19:35:36.031Z,22.63
2019-02-25T19:38:05.839Z,26.50
2019-02-25T19:40:38.261Z,24.23
2019-02-25T19:43:06.067Z,21.87
2019-02-25T19:45:36.252Z,24.20
2019-02-25T19:48:05.355Z,23.13
2019-02-25T19:50:35.281Z,26.63
2019-02-25T19:53:07.001Z,25.57
2019-02-25T19:55:36.265Z,24.37
2019-02-25T19:58:05.041Z,23.77
2019-02-25T20:00:35.349Z,21.03
2019-02-25T20:03:06.147Z,24.23
2019-02-25T20:05:33.435Z,22.30
2019-02-25T20:08:01.677Z,20.10
2019-02-25T20:10:30.768Z,23.43
2019-02-25T20:12:59.703Z,25.83
2019-02-25T20:15:27.809Z,22.13
2019-02-25T20:17:55.902Z,21.53
2019-02-25T20:20:27.308Z,21.23
2019-02-25T20:22:57.336Z,23.47
2019-02-25T20:25:26.564Z,23.03
2019-02-25T20:27:57.407Z,19.47
2019-02-25T20:30:27.734Z,20.67
2019-02-25T20:32:56.030Z,23.60
2019-02-25T20:35:25.110Z,20.93
2019-02-25T20:37:55.679Z,20.77
2019-02-25T20:40:26.713Z,23.63
2019-02-25T20:42:55.974Z,22.10
2019-02-25T20:45:25.246Z,23.43
2019-02-25T20:47:55.157Z,19.90
2019-02-25T20:50:24.401Z,25.80
2019-02-25T20:52:52.433Z,23.53
2019-02-25T20:55:20.596Z,22.63
2019-02-25T20:57:48.842Z,23.90
2019-02-25T21:00:19.518Z,28.70
2019-02-25T21:02:47.928Z,27.50
2019-02-25T21:05:16.842Z,26.67
2019-02-25T21:07:47.743Z,28.53
2019-02-25T21:10:16.560Z,25.50
2019-02-25T21:12:44.638Z,25.37
2019-02-25T21:15:14.781Z,30.57
2019-02-25T21:17:42.872Z,27.03
2019-02-25T21:20:12.314Z,28.60
2019-02-25T21:22:40.506Z,27.97
2019-02-25T21:25:08.958Z,30.23
2019-02-25T21:27:39.059Z,30.47
2019-02-25T21:30:11.728Z,28.80
2019-02-25T21:32:40.573Z,27.03
2019-02-25T21:35:11.195Z,30.00
2019-02-25T21:37:41.195Z,29.20
2019-02-25T21:40:16.768Z,29.50
2019-02-25T21:46:09.718Z,27.07
2019-02-25T21:48:38.058Z,25.43
2019-02-25T21:51:07.815Z,29.97
2019-02-25T21:53:36.191Z,30.50
2019-02-25T21:56:04.898Z,29.83
2019-02-25T21:58:33.549Z,32.07
2019-02-25T22:01:01.695Z,29.13
2019-02-25T22:03:29.970Z,28.37
2019-02-25T22:06:00.448Z,32.63
2019-02-25T22:08:29.183Z,31.13
2019-02-25T22:10:59.940Z,29.40
2019-02-25T22:13:28.430Z,31.40
2019-02-25T22:15:57.390Z,29.90
2019-02-25T22:18:28.258Z,28.97
2019-02-25T22:20:56.784Z,31.43
2019-02-25T22:23:26.121Z,30.03
2019-02-25T22:25:55.115Z,33.03
2019-02-25T22:28:23.548Z,29.57
2019-02-25T22:30:52.301Z,31.83
2019-02-25T22:33:27.387Z,32.13
2019-02-25T22:35:51.997Z,30.50
2019-02-25T22:38:20.151Z,31.20
2019-02-25T22:40:48.252Z,32.30
2019-02-25T22:43:16.953Z,32.03
2019-02-25T22:45:46.376Z,29.80
2019-02-25T22:48:16.323Z,29.63
2019-02-25T22:50:44.685Z,37.60
2019-02-25T22:53:12.819Z,33.63
2019-02-25T22:55:42.620Z,37.87
2019-02-25T22:58:12.651Z,33.87
2019-02-25T23:00:46.103Z,31.93
2019-02-25T23:03:17.692Z,32.03
2019-02-25T23:05:48.676Z,31.53
2019-02-25T23:08:20.857Z,33.93
2019-02-25T23:10:49.378Z,30.27
2019-02-25T23:13:19.971Z,35.63
2019-02-25T23:15:49.440Z,32.07
2019-02-25T23:18:21.544Z,35.53
2019-02-25T23:20:50.336Z,40.87
2019-02-25T23:23:21.291Z,33.87
2019-02-25T23:25:51.419Z,38.37
2019-02-25T23:28:22.917Z,34.63
2019-02-25T23:30:53.261Z,37.07
2019-02-25T23:33:22.801Z,32.90
2019-02-25T23:35:54.106Z,37.33
2019-02-25T23:38:22.437Z,36.17
2019-02-25T23:40:50.576Z,39.77
2019-02-25T23:43:19.006Z,36.80
2019-02-25T23:45:47.270Z,35.20
2019-02-25T23:48:15.406Z,34.67
2019-02-25T23:50:43.926Z,32.27
2019-02-25T23:53:11.955Z,32.03
2019-02-25T23:55:43.154Z,32.90
2019-02-25T23:58:12.289Z,36.13
